Time;durP1;ratioP1;P1;durP2;ratioP2;P2;SDS_P1;SDS_P2;PMS_P1;PMS_P2;Temp;Humidity;BMP_temperature;BMP_pressure;BME280_temperature;BME280_humidity;BME280_pressure;Samples;Min_cycle;Max_cycle;Signal;HPM_P1;HPM_P2
2023/03/09 00:00:29;;;;;;;11.45;6.63;;;2.10;99.90;;;;;;5091634;27;20394;-80
2023/03/09 00:02:55;;;;;;;12.65;7.35;;;2.60;99.90;;;;;;5110182;27;20047;-80
2023/03/09 00:05:20;;;;;;;11.15;6.28;;;3.40;99.90;;;;;;5075353;27;20051;-80
2023/03/09 00:07:47;;;;;;;14.68;6.93;;;2.00;99.90;;;;;;5092713;27;20043;-80
2023/03/09 00:10:14;;;;;;;17.73;7.25;;;2.00;99.90;;;;;;5109742;27;20057;-80
2023/03/09 00:12:40;;;;;;;13.32;6.90;;;2.00;99.90;;;;;;5091733;27;20043;-80
2023/03/09 00:15:08;;;;;;;10.68;6.80;;;2.00;99.90;;;;;;5093058;27;20090;-80
2023/03/09 00:17:34;;;;;;;15.02;7.20;;;2.00;99.90;;;;;;5108792;27;20043;-79
2023/03/09 00:20:17;;;;;;;11.57;7.55;;;2.10;99.90;;;;;;5076466;27;20451;-80
2023/03/09 00:22:51;;;;;;;12.48;7.88;;;2.00;99.90;;;;;;5092044;27;20087;-79
2023/03/09 00:25:17;;;;;;;12.57;7.38;;;2.00;99.90;;;;;;5108957;27;20059;-79
2023/03/09 00:27:47;;;;;;;12.80;8.02;;;2.00;99.90;;;;;;5110077;27;20075;-79
2023/03/09 00:30:13;;;;;;;13.43;7.10;;;2.00;99.90;;;;;;5108334;27;20050;-79
2023/03/09 00:32:39;;;;;;;12.20;7.55;;;2.00;99.90;;;;;;5076424;27;20043;-79
2023/03/09 00:35:06;;;;;;;14.27;8.77;;;2.00;99.90;;;;;;5074397;27;20159;-79
2023/03/09 00:37:32;;;;;;;13.77;8.57;;;2.00;99.90;;;;;;5092222;27;20043;-79
2023/03/09 00:39:57;;;;;;;13.93;9.02;;;2.00;99.90;;;;;;5092397;27;20135;-79
2023/03/09 00:42:23;;;;;;;14.50;8.00;;;3.10;99.90;;;;;;5057698;27;20134;-79
2023/03/09 00:44:50;;;;;;;16.60;8.35;;;2.00;99.90;;;;;;5075743;27;20078;-79
2023/03/09 00:47:18;;;;;;;15.82;8.60;;;2.00;99.90;;;;;;5090898;27;20046;-79
2023/03/09 00:49:44;;;;;;;16.75;9.85;;;2.00;99.90;;;;;;5109212;27;20047;-79
2023/03/09 00:52:10;;;;;;;12.70;8.30;;;2.00;99.90;;;;;;5090812;27;20103;-79
2023/03/09 00:54:36;;;;;;;17.23;9.45;;;1.90;99.90;;;;;;5108940;27;20039;-79
2023/03/09 00:57:01;;;;;;;15.48;9.20;;;1.90;99.90;;;;;;5108168;27;20444;-79
2023/03/09 00:59:27;;;;;;;11.82;8.38;;;1.90;99.90;;;;;;5090688;27;20088;-79
2023/03/09 01:01:53;;;;;;;19.63;8.73;;;1.80;99.90;;;;;;5075252;27;20043;-79
2023/03/09 01:04:19;;;;;;;25.85;9.25;;;1.80;99.90;;;;;;5107671;27;20044;-79
2023/03/09 01:06:45;;;;;;;15.05;9.52;;;2.60;99.90;;;;;;5109737;27;20050;-79
2023/03/09 01:09:11;;;;;;;14.48;9.18;;;3.20;99.90;;;;;;5126747;27;20088;-79
2023/03/09 01:11:36;;;;;;;19.55;9.75;;;1.70;99.90;;;;;;5127416;27;20134;-78
2023/03/09 01:14:03;;;;;;;13.90;8.63;;;3.10;99.90;;;;;;5126518;27;20039;-79
2023/03/09 01:16:29;;;;;;;17.20;9.30;;;2.50;99.90;;;;;;5126647;27;20123;-79
2023/03/09 01:18:54;;;;;;;13.50;8.65;;;3.00;99.90;;;;;;5127109;27;20248;-80
2023/03/09 01:21:20;;;;;;;15.98;9.13;;;2.80;99.90;;;;;;5107839;28;20047;-80
2023/03/09 01:23:46;;;;;;;17.83;8.38;;;1.60;99.90;;;;;;5127836;28;20035;-80
2023/03/09 01:26:12;;;;;;;16.60;9.88;;;1.50;99.90;;;;;;5126015;28;20051;-80
2023/03/09 01:28:38;;;;;;;15.50;9.38;;;1.50;99.90;;;;;;5108856;28;20043;-79
2023/03/09 01:31:09;;;;;;;16.00;9.07;;;1.40;99.90;;;;;;5107893;28;20066;-79
2023/03/09 01:33:35;;;;;;;18.58;9.68;;;1.40;99.90;;;;;;5126297;28;20043;-79
2023/03/09 01:36:04;;;;;;;17.17;8.48;;;1.30;99.90;;;;;;5091670;28;20035;-78
2023/03/09 01:38:30;;;;;;;17.60;9.90;;;1.30;99.90;;;;;;5107324;28;20131;-79
2023/03/09 01:40:55;;;;;;;15.98;9.25;;;1.20;99.90;;;;;;5109365;27;20042;-79
2023/03/09 01:43:28;;;;;;;16.25;9.85;;;1.20;99.90;;;;;;5130094;27;20111;-79
2023/03/09 01:46:22;;;;;;;17.17;9.60;;;2.20;99.90;;;;;;5131281;27;20051;-78
2023/03/09 01:49:06;;;;;;;;;;;1.10;99.90;;;;;;5131999;27;20046;-79
2023/03/09 01:51:39;;;;;;;18.20;11.15;;;1.00;99.90;;;;;;5111261;27;20005;-79
2023/03/09 01:54:08;;;;;;;18.42;10.65;;;1.90;99.90;;;;;;5131396;27;20043;-79
2023/03/09 01:56:36;;;;;;;15.80;9.70;;;0.90;99.90;;;;;;5130047;27;20047;-78
2023/03/09 01:59:04;;;;;;;17.73;9.88;;;0.90;99.90;;;;;;5130294;27;20065;-79
2023/03/09 02:01:30;;;;;;;15.65;9.73;;;0.80;99.90;;;;;;5112059;27;20047;-79
2023/03/09 02:04:03;;;;;;;18.40;11.20;;;0.80;99.90;;;;;;5129761;27;20039;-79
2023/03/09 02:06:29;;;;;;;;;;;0.70;99.90;;;;;;5131987;27;20043;-78
2023/03/09 02:09:09;;;;;;;18.65;9.80;;;0.70;99.90;;;;;;5129563;27;19923;-79
2023/03/09 02:11:34;;;;;;;20.42;11.30;;;0.70;99.90;;;;;;5111905;27;20051;-78
2023/03/09 02:14:01;;;;;;;21.85;11.18;;;1.90;99.90;;;;;;5111774;27;20058;-78
2023/03/09 02:16:27;;;;;;;22.38;10.45;;;0.60;99.90;;;;;;5111046;27;20043;-79
2023/03/09 02:18:53;;;;;;;19.48;10.85;;;0.60;99.90;;;;;;5130890;27;20488;-79
2023/03/09 02:21:42;;;;;;;20.55;10.57;;;0.60;99.90;;;;;;5129792;27;20130;-79
2023/03/09 02:24:14;;;;;;;22.50;11.68;;;0.50;99.90;;;;;;5112178;27;20035;-78
2023/03/09 02:26:57;;;;;;;17.90;10.80;;;0.50;99.90;;;;;;5111035;27;20062;-78
2023/03/09 02:29:23;;;;;;;21.48;11.50;;;0.50;99.90;;;;;;5129824;27;20116;-78
2023/03/09 02:31:49;;;;;;;21.52;11.48;;;0.50;99.90;;;;;;5130987;27;20095;-78
2023/03/09 02:34:15;;;;;;;21.25;10.60;;;0.60;99.90;;;;;;5110344;27;20130;-78
2023/03/09 02:36:41;;;;;;;21.13;10.57;;;0.50;99.90;;;;;;5111810;27;20084;-78
2023/03/09 02:39:40;;;;;;;22.42;12.30;;;0.60;99.90;;;;;;5110313;27;20043;-78
2023/03/09 02:42:06;;;;;;;19.75;11.25;;;0.60;99.90;;;;;;5066539;27;20059;-78
2023/03/09 02:44:33;;;;;;;22.67;12.60;;;0.60;99.90;;;;;;5112354;27;20072;-78
2023/03/09 02:47:01;;;;;;;24.63;12.15;;;2.10;99.90;;;;;;5128721;27;20094;-78
2023/03/09 02:49:26;;;;;;;22.55;11.30;;;1.00;99.90;;;;;;5130520;27;20050;-78
2023/03/09 02:51:52;;;;;;;18.15;11.43;;;0.50;99.90;;;;;;5128737;27;20039;-78
2023/03/09 02:54:18;;;;;;;23.50;12.00;;;0.60;99.90;;;;;;5111318;27;20047;-78
2023/03/09 02:56:43;;;;;;;21.90;12.25;;;1.80;99.90;;;;;;5110621;27;20543;-78
2023/03/09 02:59:09;;;;;;;22.23;10.95;;;0.50;99.90;;;;;;5106908;28;20066;-78
2023/03/09 03:01:35;;;;;;;24.58;12.90;;;0.50;99.90;;;;;;5107558;28;20039;-78
2023/03/09 03:04:00;;;;;;;19.98;11.20;;;0.50;99.90;;;;;;5089485;28;20052;-78
2023/03/09 03:06:26;;;;;;;25.15;12.80;;;0.50;99.90;;;;;;5109590;28;20093;-78
2023/03/09 03:08:52;;;;;;;23.33;13.35;;;0.50;99.90;;;;;;5089705;28;20088;-80
2023/03/09 03:11:17;;;;;;;22.80;12.93;;;1.60;99.90;;;;;;5090952;28;20130;-78
2023/03/09 03:13:43;;;;;;;23.67;12.30;;;0.60;99.90;;;;;;5090160;28;20122;-78
2023/03/09 03:16:09;;;;;;;23.83;13.00;;;-0.90;99.90;;;;;;5106852;28;20494;-79
2023/03/09 03:18:35;;;;;;;28.13;13.73;;;0.60;99.90;;;;;;5108326;28;20131;-78
2023/03/09 03:21:00;;;;;;;28.70;14.25;;;1.90;99.90;;;;;;5106796;28;20130;-79
2023/03/09 03:23:26;;;;;;;25.52;13.48;;;0.70;99.90;;;;;;5109371;28;20040;-79
2023/03/09 03:25:52;;;;;;;24.15;12.98;;;0.70;99.90;;;;;;5105812;28;20043;-79
2023/03/09 03:28:17;;;;;;;23.95;14.07;;;0.70;99.90;;;;;;5107406;28;20100;-79
2023/03/09 03:30:50;;;;;;;28.10;14.07;;;0.70;99.90;;;;;;5072561;28;20044;-79
2023/03/09 03:33:16;;;;;;;28.00;14.15;;;2.30;99.90;;;;;;5106858;28;20107;-79
2023/03/09 03:35:41;;;;;;;25.73;13.73;;;0.80;99.90;;;;;;5090114;28;20122;-79
2023/03/09 03:38:08;;;;;;;26.40;14.35;;;0.80;99.90;;;;;;5072243;28;20043;-79
2023/03/09 03:40:34;;;;;;;25.67;13.07;;;0.80;99.90;;;;;;5107571;28;20055;-79
2023/03/09 03:42:59;;;;;;;25.25;14.60;;;0.80;99.90;;;;;;5107615;28;20039;-79
2023/03/09 03:45:25;;;;;;;27.48;14.88;;;0.80;99.90;;;;;;5107507;28;20126;-79
2023/03/09 03:47:51;;;;;;;28.13;14.05;;;0.90;99.90;;;;;;5107942;28;20456;-79
2023/03/09 03:50:17;;;;;;;27.10;15.05;;;1.70;99.90;;;;;;5108008;28;20066;-80
2023/03/09 03:52:42;;;;;;;24.73;13.75;;;0.90;99.90;;;;;;5107878;27;20043;-79
2023/03/09 03:55:09;;;;;;;26.80;15.50;;;0.90;99.90;;;;;;5107297;28;20050;-79
2023/03/09 03:57:34;;;;;;;27.75;14.63;;;0.90;99.90;;;;;;5107073;28;20058;-79
2023/03/09 04:00:00;;;;;;;23.13;14.02;;;0.90;99.90;;;;;;5119822;27;20059;-80
2023/03/09 04:02:26;;;;;;;24.83;13.52;;;2.30;99.90;;;;;;5129120;27;20471;-80
2023/03/09 04:04:51;;;;;;;24.25;14.43;;;1.00;99.90;;;;;;5091358;27;20055;-79
2023/03/09 04:07:17;;;;;;;27.08;14.55;;;1.00;99.90;;;;;;5075971;27;20082;-79
2023/03/09 04:09:43;;;;;;;25.13;14.88;;;2.00;99.90;;;;;;5128116;27;20035;-79
2023/03/09 04:12:08;;;;;;;26.48;14.60;;;1.00;99.90;;;;;;5109154;27;20035;-79
2023/03/09 04:14:34;;;;;;;26.77;14.98;;;1.00;99.90;;;;;;5109962;27;20448;-79
2023/03/09 04:17:00;;;;;;;26.83;15.02;;;1.00;99.90;;;;;;5127064;27;20138;-79
2023/03/09 04:19:26;;;;;;;25.55;14.50;;;1.00;99.90;;;;;;5128673;27;20123;-79
2023/03/09 04:21:51;;;;;;;28.88;15.45;;;2.60;99.90;;;;;;5108699;27;20031;-78
2023/03/09 04:24:17;;;;;;;28.13;14.65;;;1.00;99.90;;;;;;5109728;27;20043;-78
2023/03/09 04:26:43;;;;;;;27.42;15.13;;;1.00;99.90;;;;;;5109440;27;20089;-79
2023/03/09 04:29:08;;;;;;;23.20;14.85;;;1.00;99.90;;;;;;5127627;27;20047;-79
2023/03/09 04:31:34;;;;;;;32.13;15.20;;;2.40;99.90;;;;;;5110461;27;20035;-79
2023/03/09 04:34:00;;;;;;;31.52;15.50;;;1.00;99.90;;;;;;5108548;27;20043;-80
2023/03/09 04:36:26;;;;;;;24.35;14.23;;;0.90;99.90;;;;;;5128728;27;20043;-80
2023/03/09 04:38:52;;;;;;;28.08;15.25;;;0.90;99.90;;;;;;5126970;27;20039;-79
2023/03/09 04:41:17;;;;;;;25.40;14.73;;;0.90;99.90;;;;;;5128520;27;20378;-79
2023/03/09 04:43:43;;;;;;;24.38;13.70;;;1.10;99.90;;;;;;5127357;27;20494;-79
2023/03/09 04:46:09;;;;;;;23.88;13.75;;;1.80;99.90;;;;;;5126813;27;20043;-80
2023/03/09 04:48:34;;;;;;;25.48;15.00;;;2.00;99.90;;;;;;5127808;27;20123;-80
2023/03/09 04:51:00;;;;;;;23.58;14.13;;;0.90;99.90;;;;;;5126199;27;20057;-81
2023/03/09 04:53:26;;;;;;;25.17;14.43;;;2.50;99.90;;;;;;5109798;27;20147;-80
2023/03/09 04:55:51;;;;;;;21.63;13.25;;;0.80;99.90;;;;;;5126160;27;20379;-80
2023/03/09 04:58:17;;;;;;;22.83;13.70;;;0.80;99.90;;;;;;5127724;27;20447;-80
2023/03/09 05:00:43;;;;;;;27.20;14.18;;;0.80;99.90;;;;;;5104597;28;20482;-81
2023/03/09 05:03:09;;;;;;;26.73;14.27;;;2.10;99.90;;;;;;5088028;28;20062;-81
2023/03/09 05:05:34;;;;;;;23.05;13.82;;;0.80;99.90;;;;;;5105171;28;20047;-81
2023/03/09 05:08:00;;;;;;;23.67;13.05;;;2.40;99.90;;;;;;5087428;28;20063;-81
2023/03/09 05:10:26;;;;;;;24.75;14.40;;;2.00;99.90;;;;;;5107375;28;20126;-81
2023/03/09 05:12:51;;;;;;;27.33;13.88;;;0.80;99.90;;;;;;5104195;28;20082;-81
2023/03/09 05:15:17;;;;;;;24.73;13.32;;;0.80;99.90;;;;;;5105014;28;20127;-80
2023/03/09 05:17:43;;;;;;;24.42;13.27;;;0.80;99.90;;;;;;5105541;28;20051;-80
2023/03/09 05:20:10;;;;;;;26.63;12.80;;;0.80;99.90;;;;;;5105089;28;20052;-81
2023/03/09 05:22:37;;;;;;;21.55;12.18;;;0.90;99.90;;;;;;5106253;28;20055;-79
2023/03/09 05:25:05;;;;;;;25.67;12.75;;;0.20;99.90;;;;;;5105997;28;20632;-80
2023/03/09 05:27:31;;;;;;;24.55;13.52;;;0.90;99.90;;;;;;5107355;28;20071;-80
2023/03/09 05:29:57;;;;;;;24.75;12.85;;;0.90;99.90;;;;;;5104936;28;20494;-81
2023/03/09 05:32:23;;;;;;;22.23;12.85;;;0.90;99.90;;;;;;5107723;28;20169;-80
2023/03/09 05:34:48;;;;;;;26.88;13.85;;;0.90;99.90;;;;;;5105271;28;20118;-80
2023/03/09 05:37:14;;;;;;;26.33;12.57;;;0.90;99.90;;;;;;5106678;28;20075;-80
2023/03/09 05:39:40;;;;;;;23.50;13.80;;;0.90;99.90;;;;;;5104775;28;20149;-80
2023/03/09 05:42:06;;;;;;;22.88;12.57;;;1.50;99.90;;;;;;5105661;28;20050;-81
2023/03/09 05:44:31;;;;;;;22.45;12.50;;;0.90;99.90;;;;;;5106790;28;20047;-81
2023/03/09 05:46:57;;;;;;;23.60;12.85;;;0.80;99.90;;;;;;5105297;28;20132;-81
2023/03/09 05:49:27;;;;;;;23.88;12.52;;;0.80;99.90;;;;;;5105876;28;20169;-78
2023/03/09 05:51:59;;;;;;;23.63;12.27;;;0.80;99.90;;;;;;5103937;28;20059;-84
2023/03/09 05:54:25;;;;;;;22.58;12.38;;;0.80;99.90;;;;;;5088229;28;20035;-80
2023/03/09 05:56:54;;;;;;;20.80;12.07;;;0.80;99.90;;;;;;5106008;28;20517;-81
2023/03/09 05:59:20;;;;;;;23.98;13.27;;;2.40;99.90;;;;;;5110460;27;20055;-81
2023/03/09 06:01:46;;;;;;;25.27;12.38;;;2.00;99.90;;;;;;5108753;28;20086;-81
2023/03/09 06:04:11;;;;;;;22.48;12.40;;;0.80;99.90;;;;;;5125239;28;20469;-81
2023/03/09 06:06:37;;;;;;;23.05;13.13;;;2.40;99.90;;;;;;5091707;28;20035;-84
2023/03/09 06:09:03;;;;;;;20.08;11.93;;;0.80;99.90;;;;;;5107100;28;20138;-80
2023/03/09 06:11:28;;;;;;;19.50;13.30;;;0.80;99.90;;;;;;5126562;28;20039;-81
2023/03/09 06:13:55;;;;;;;21.55;12.13;;;2.00;99.90;;;;;;5126463;28;20204;-80
2023/03/09 06:16:21;;;;;;;20.20;12.25;;;2.20;99.90;;;;;;5090460;28;20035;-79
2023/03/09 06:18:47;;;;;;;24.08;12.40;;;0.90;99.90;;;;;;5126770;28;20046;-81
2023/03/09 06:21:14;;;;;;;23.67;12.80;;;0.90;99.90;;;;;;5125414;28;20042;-79
2023/03/09 06:23:39;;;;;;;20.83;12.10;;;0.90;99.90;;;;;;5109091;28;20390;-81
2023/03/09 06:26:09;;;;;;;22.55;12.68;;;2.20;99.90;;;;;;5125605;28;20043;-81
2023/03/09 06:28:35;;;;;;;21.02;11.73;;;0.90;99.90;;;;;;5111075;27;20285;-80
2023/03/09 06:31:11;;;;;;;20.48;11.77;;;1.30;99.90;;;;;;5111691;27;20054;-81
2023/03/09 06:33:38;;;;;;;26.67;14.75;;;2.20;99.90;;;;;;5129159;27;20047;-80
2023/03/09 06:36:05;;;;;;;20.88;11.80;;;1.30;99.90;;;;;;5094837;27;20051;-79
2023/03/09 06:38:31;;;;;;;21.48;12.02;;;0.90;99.90;;;;;;5128718;27;20050;-80
2023/03/09 06:40:57;;;;;;;19.35;11.68;;;2.30;99.90;;;;;;5130732;27;20058;-79
2023/03/09 06:43:23;;;;;;;24.10;12.10;;;2.00;99.90;;;;;;5129195;27;20039;-80
2023/03/09 06:45:49;;;;;;;24.10;12.00;;;0.70;99.90;;;;;;5129614;27;20184;-80
2023/03/09 06:48:15;;;;;;;22.92;12.30;;;2.30;99.90;;;;;;5129731;27;20129;-81
2023/03/09 06:50:41;;;;;;;23.40;12.73;;;2.30;99.90;;;;;;5110442;27;20047;-81
2023/03/09 06:53:06;;;;;;;21.38;12.75;;;1.00;99.90;;;;;;5130276;27;20062;-80
2023/03/09 06:55:32;;;;;;;19.13;11.18;;;1.00;99.90;;;;;;5128521;27;20084;-81
2023/03/09 06:57:58;;;;;;;18.35;11.63;;;1.10;99.90;;;;;;5111699;27;20043;-81
2023/03/09 07:00:24;;;;;;;19.67;11.93;;;2.50;99.90;;;;;;5128472;27;20398;-79
2023/03/09 07:02:49;;;;;;;21.25;11.23;;;1.20;99.90;;;;;;5110878;27;20064;-78
2023/03/09 07:05:15;;;;;;;23.20;12.02;;;1.20;99.90;;;;;;5110657;27;20038;-78
2023/03/09 07:07:42;;;;;;;23.70;12.13;;;1.20;99.90;;;;;;5109986;27;20132;-78
2023/03/09 07:10:12;;;;;;;23.85;11.90;;;2.40;99.90;;;;;;5111244;27;20053;-78
2023/03/09 07:12:41;;;;;;;21.48;11.45;;;1.30;99.90;;;;;;5093694;27;20074;-78
2023/03/09 07:15:09;;;;;;;18.38;11.73;;;1.20;99.90;;;;;;5129574;27;20074;-78
2023/03/09 07:17:36;;;;;;;20.20;11.60;;;1.30;99.90;;;;;;5110199;27;20126;-78
2023/03/09 07:20:02;;;;;;;21.42;12.48;;;1.30;99.90;;;;;;5110803;27;20108;-78
2023/03/09 07:22:27;;;;;;;20.30;11.90;;;1.40;99.90;;;;;;5128779;27;20127;-78
2023/03/09 07:24:53;;;;;;;21.52;12.02;;;2.80;99.90;;;;;;5128361;27;20122;-79
2023/03/09 07:27:20;;;;;;;22.10;12.68;;;1.40;99.90;;;;;;5129556;27;20695;-78
2023/03/09 07:29:46;;;;;;;20.27;12.80;;;2.60;99.90;;;;;;5109159;27;20043;-78
2023/03/09 07:32:11;;;;;;;21.02;12.38;;;1.60;99.90;;;;;;5111348;27;20039;-78
2023/03/09 07:34:37;;;;;;;20.13;12.55;;;3.10;99.90;;;;;;5109115;27;20049;-79
2023/03/09 07:37:04;;;;;;;20.08;12.15;;;1.70;99.90;;;;;;5110161;27;20483;-79
2023/03/09 07:39:30;;;;;;;20.40;12.40;;;1.70;99.90;;;;;;5128076;27;20055;-81
2023/03/09 07:41:56;;;;;;;34.60;18.80;;;3.00;99.90;;;;;;5109783;27;20039;-79
2023/03/09 07:44:21;;;;;;;21.40;12.35;;;2.90;99.90;;;;;;5129337;27;20043;-81
2023/03/09 07:46:47;;;;;;;20.08;11.90;;;1.80;99.90;;;;;;5127325;27;20435;-78
2023/03/09 07:49:13;;;;;;;23.83;12.10;;;1.90;99.90;;;;;;5129238;27;20101;-79
2023/03/09 07:51:39;;;;;;;20.25;12.00;;;3.50;99.90;;;;;;5109339;27;20066;-79
2023/03/09 07:54:06;;;;;;;19.13;11.25;;;2.00;99.90;;;;;;5109989;27;20047;-80
2023/03/09 07:56:33;;;;;;;19.25;11.32;;;3.40;99.90;;;;;;5127697;27;20058;-80
2023/03/09 07:58:59;;;;;;;17.20;10.88;;;2.20;99.90;;;;;;5109162;27;20050;-81
2023/03/09 08:01:26;;;;;;;17.73;10.95;;;2.40;99.90;;;;;;5093079;27;20047;-79
2023/03/09 08:03:53;;;;;;;18.23;10.05;;;2.50;99.90;;;;;;5075370;27;20079;-79
2023/03/09 08:06:19;;;;;;;16.75;10.25;;;2.50;99.90;;;;;;5093598;27;20454;-79
2023/03/09 08:08:46;;;;;;;16.65;9.52;;;2.60;99.90;;;;;;5108228;27;20036;-79
2023/03/09 08:11:12;;;;;;;16.13;9.25;;;2.70;99.90;;;;;;5128284;27;20082;-79
2023/03/09 08:13:38;;;;;;;14.23;9.00;;;2.80;99.90;;;;;;5127395;27;20071;-78
2023/03/09 08:16:06;;;;;;;13.98;9.82;;;4.50;99.90;;;;;;5127572;27;20047;-79
2023/03/09 08:18:33;;;;;;;12.15;8.57;;;2.00;99.90;;;;;;5109757;27;20051;-79
2023/03/09 08:21:11;;;;;;;14.77;9.43;;;3.10;99.90;;;;;;5126975;27;20114;-79
2023/03/09 08:23:39;;;;;;;15.40;8.88;;;3.20;99.90;;;;;;5128602;27;20091;-78
2023/03/09 08:26:12;;;;;;;12.98;7.70;;;3.40;99.90;;;;;;5074714;27;20074;-80
2023/03/09 08:28:39;;;;;;;14.80;7.90;;;3.20;99.90;;;;;;5127368;27;20039;-79
2023/03/09 08:31:05;;;;;;;12.07;7.90;;;3.30;99.90;;;;;;5108809;27;20047;-78
2023/03/09 08:33:31;;;;;;;11.73;7.13;;;3.30;99.90;;;;;;5107889;27;20043;-78
2023/03/09 08:35:57;;;;;;;10.63;7.40;;;3.30;99.90;;;;;;5128187;27;20043;-79
2023/03/09 08:38:23;;;;;;;11.73;7.05;;;3.40;99.90;;;;;;5126507;27;20191;-78
2023/03/09 08:40:49;;;;;;;11.70;8.18;;;2.60;99.90;;;;;;5128149;27;20039;-79
2023/03/09 08:43:14;;;;;;;10.35;7.28;;;3.60;99.90;;;;;;5126964;27;20057;-78
2023/03/09 08:45:40;;;;;;;10.98;7.72;;;3.70;99.90;;;;;;5127090;27;20139;-79
2023/03/09 08:48:06;;;;;;;10.15;6.28;;;3.80;99.90;;;;;;5109049;27;20043;-79
2023/03/09 08:50:32;;;;;;;9.48;7.10;;;5.00;99.90;;;;;;5107689;27;20509;-79
2023/03/09 08:52:58;;;;;;;8.93;6.25;;;4.40;99.90;;;;;;5128028;27;20047;-79
2023/03/09 08:55:23;;;;;;;9.43;6.32;;;4.00;99.90;;;;;;5126260;27;20043;-78
2023/03/09 08:57:51;;;;;;;8.25;5.85;;;4.10;99.90;;;;;;5128262;27;20075;-79
2023/03/09 09:00:18;;;;;;;10.90;7.00;;;4.10;99.90;;;;;;5108016;27;20209;-78
2023/03/09 09:02:43;;;;;;;10.55;6.32;;;4.20;99.90;;;;;;5108346;27;20054;-79
2023/03/09 09:05:09;;;;;;;10.80;7.00;;;4.90;99.90;;;;;;5091290;27;20047;-79
2023/03/09 09:07:36;;;;;;;9.40;6.55;;;5.30;99.90;;;;;;5107689;27;20043;-80
2023/03/09 09:10:02;;;;;;;11.32;6.03;;;4.50;99.90;;;;;;5109079;27;20051;-80
2023/03/09 09:12:32;;;;;;;9.40;5.93;;;4.70;99.90;;;;;;5073748;27;20088;-80
2023/03/09 09:14:58;;;;;;;10.77;6.03;;;4.70;99.90;;;;;;5076690;28;20043;-79
2023/03/09 09:17:23;;;;;;;8.07;6.10;;;5.70;99.90;;;;;;5090505;27;20478;-80
2023/03/09 09:19:51;;;;;;;13.30;6.43;;;4.90;99.90;;;;;;5126998;27;20036;-79
2023/03/09 09:22:17;;;;;;;7.22;5.28;;;6.10;99.90;;;;;;5108580;28;20366;-79
2023/03/09 09:24:43;;;;;;;7.82;5.82;;;5.10;99.90;;;;;;5107423;27;20133;-79
2023/03/09 09:27:10;;;;;;;9.38;5.10;;;5.20;99.90;;;;;;5109279;27;20114;-80
2023/03/09 09:29:36;;;;;;;8.60;5.05;;;5.30;99.90;;;;;;5089976;28;20039;-80
2023/03/09 09:32:03;;;;;;;7.70;5.22;;;5.40;99.90;;;;;;5091719;28;20084;-81
2023/03/09 09:34:31;;;;;;;7.43;5.18;;;5.40;99.90;;;;;;5107057;28;20090;-81
2023/03/09 09:37:00;;;;;;;7.05;4.65;;;5.40;99.90;;;;;;5108087;28;20070;-80
2023/03/09 09:39:26;;;;;;;10.65;4.90;;;5.70;99.90;;;;;;5090874;28;20043;-80
2023/03/09 09:41:55;;;;;;;7.07;5.32;;;5.40;99.90;;;;;;5107826;28;20043;-80
2023/03/09 09:44:32;;;;;;;7.75;4.70;;;5.40;99.90;;;;;;5108778;28;20050;-79
2023/03/09 09:47:01;;;;;;;7.65;5.45;;;5.50;99.90;;;;;;5090506;28;20505;-80
2023/03/09 09:49:30;;;;;;;12.13;5.70;;;5.50;99.90;;;;;;5108183;28;20046;-80
2023/03/09 09:52:05;;;;;;;9.70;5.20;;;5.80;99.90;;;;;;5107864;28;20043;-79
2023/03/09 09:54:52;;;;;;;7.88;5.07;;;5.80;99.90;;;;;;5090406;28;20498;-80
2023/03/09 09:57:38;;;;;;;9.27;4.65;;;5.90;99.90;;;;;;5108589;28;20057;-80
2023/03/09 10:00:28;;;;;;;5.53;4.05;;;6.30;99.90;;;;;;5089567;28;20059;-81
2023/03/09 10:03:02;;;;;;;6.57;4.75;;;6.60;99.90;;;;;;5092076;27;20050;-81
2023/03/09 10:05:38;;;;;;;5.38;3.50;;;6.80;99.90;;;;;;5112396;27;20043;-80
2023/03/09 10:08:21;;;;;;;6.45;4.50;;;6.90;99.90;;;;;;5110735;27;20043;-81
2023/03/09 10:10:47;;;;;;;5.63;3.10;;;7.10;99.90;;;;;;5112155;27;20043;-81
2023/03/09 10:13:29;;;;;;;7.82;3.80;;;7.80;99.90;;;;;;5094903;27;20075;-81
2023/03/09 10:15:56;;;;;;;4.00;3.40;;;7.20;99.90;;;;;;5094663;27;20043;-80
2023/03/09 10:18:34;;;;;;;6.78;3.50;;;7.20;99.90;;;;;;5112376;27;20118;-80
2023/03/09 10:21:01;;;;;;;7.63;3.22;;;7.90;99.90;;;;;;5093609;27;20050;-80
2023/03/09 10:23:30;;;;;;;5.30;3.03;;;7.80;99.90;;;;;;5095762;27;20082;-80
2023/03/09 10:26:23;;;;;;;4.68;3.35;;;7.50;99.90;;;;;;5129510;27;20473;-80
2023/03/09 10:28:56;;;;;;;5.40;2.10;;;7.50;99.90;;;;;;5110938;27;20071;-80
2023/03/09 10:31:45;;;;;;;5.25;3.60;;;7.30;99.90;;;;;;5130461;27;20524;-80
2023/03/09 10:34:26;;;;;;;5.20;3.42;;;7.20;99.90;;;;;;5110395;27;20320;-79
2023/03/09 10:36:58;;;;;;;5.50;3.08;;;7.60;99.90;;;;;;5130084;27;20190;-80
2023/03/09 10:39:24;;;;;;;9.98;4.45;;;8.10;99.90;;;;;;5111198;27;20130;-79
2023/03/09 10:41:55;;;;;;;8.63;3.90;;;7.80;99.90;;;;;;5110913;27;20039;-79
2023/03/09 10:44:22;;;;;;;6.25;3.70;;;7.30;99.90;;;;;;5112379;27;20097;-80
2023/03/09 10:46:59;;;;;;;6.78;3.28;;;7.30;99.90;;;;;;5128796;27;20479;-80
2023/03/09 10:49:26;;;;;;;5.30;3.70;;;7.10;99.90;;;;;;5111712;27;20035;-80
2023/03/09 10:52:06;;;;;;;7.97;2.85;;;6.50;99.90;;;;;;5129416;27;20036;-80
2023/03/09 10:54:34;;;;;;;4.28;2.72;;;6.50;99.90;;;;;;5129105;27;20130;-80
2023/03/09 10:57:00;;;;;;;4.78;2.90;;;7.50;99.90;;;;;;5111520;27;20474;-80
2023/03/09 10:59:29;;;;;;;4.93;3.08;;;6.40;99.90;;;;;;5109793;27;20126;-79
2023/03/09 11:01:59;;;;;;;4.85;3.13;;;6.30;99.90;;;;;;5130329;27;20471;-79
2023/03/09 11:04:32;;;;;;;4.70;3.13;;;6.20;99.90;;;;;;5110931;27;20546;-79
2023/03/09 11:07:00;;;;;;;4.43;3.22;;;6.10;99.90;;;;;;5111001;27;20051;-79
2023/03/09 11:09:41;;;;;;;6.20;3.58;;;6.10;99.90;;;;;;5110882;27;20049;-80
2023/03/09 11:12:14;;;;;;;7.75;3.83;;;6.10;99.90;;;;;;5128580;27;20405;-79
2023/03/09 11:14:50;;;;;;;6.68;4.18;;;6.20;99.90;;;;;;5093318;27;20376;-79
2023/03/09 11:17:37;;;;;;;5.85;3.45;;;6.50;99.90;;;;;;5093160;27;20710;-80
2023/03/09 11:20:12;;;;;;;5.97;3.47;;;6.70;99.90;;;;;;5093633;27;20039;-80
2023/03/09 11:22:42;;;;;;;5.90;3.75;;;6.70;99.90;;;;;;5111145;27;20099;-79
2023/03/09 11:25:17;;;;;;;4.85;3.38;;;6.70;99.90;;;;;;5109346;27;20050;-80
2023/03/09 11:27:49;;;;;;;6.32;4.10;;;6.70;99.90;;;;;;5110959;27;20039;-80
2023/03/09 11:30:17;;;;;;;4.07;3.22;;;6.80;99.90;;;;;;5110184;27;20605;-80
2023/03/09 11:32:43;;;;;;;4.57;3.05;;;7.90;99.90;;;;;;5109846;27;20050;-80
2023/03/09 11:35:13;;;;;;;3.90;2.80;;;7.00;99.90;;;;;;5093228;27;20043;-80
2023/03/09 11:38:10;;;;;;;7.25;3.75;;;6.80;99.90;;;;;;5109511;27;20043;-79
2023/03/09 11:40:38;;;;;;;4.45;3.20;;;6.70;99.90;;;;;;5109529;27;20096;-80
2023/03/09 11:43:27;;;;;;;6.97;3.38;;;6.50;99.90;;;;;;5092375;27;20122;-80
2023/03/09 11:45:59;;;;;;;4.18;3.15;;;6.40;99.90;;;;;;5092695;27;20047;-80
2023/03/09 11:48:57;;;;;;;8.52;4.07;;;6.40;99.90;;;;;;5110590;27;20133;-80
2023/03/09 11:51:30;;;;;;;6.22;4.07;;;6.40;99.90;;;;;;5126998;27;20055;-81
2023/03/09 11:54:10;;;;;;;;;;;6.90;99.90;;;;;;5129127;27;20043;-80
2023/03/09 11:56:41;;;;;;;5.15;3.30;;;6.40;99.90;;;;;;5127556;27;19919;-78
2023/03/09 11:59:15;;;;;;;6.43;3.78;;;6.40;99.90;;;;;;5108792;27;20055;-79
2023/03/09 12:02:03;;;;;;;5.32;3.40;;;6.40;99.90;;;;;;5129467;27;20055;-84
2023/03/09 12:04:29;;;;;;;5.30;3.38;;;6.40;99.90;;;;;;5128045;27;20183;-80
2023/03/09 12:07:05;;;;;;;5.65;3.22;;;6.40;99.90;;;;;;5109947;27;20134;-79
2023/03/09 12:09:52;;;;;;;7.20;3.53;;;6.70;99.90;;;;;;5093070;27;20051;-80
2023/03/09 12:12:39;;;;;;;4.70;2.88;;;6.50;99.90;;;;;;5108906;27;20079;-80
2023/03/09 12:15:16;;;;;;;4.18;3.08;;;6.50;99.90;;;;;;5109918;27;20501;-80
2023/03/09 12:17:51;;;;;;;3.08;2.25;;;6.60;99.90;;;;;;5109519;27;20047;-80
2023/03/09 12:20:23;;;;;;;5.00;3.47;;;6.80;99.90;;;;;;5109056;27;20065;-80
2023/03/09 12:22:49;;;;;;;4.13;3.17;;;6.70;99.90;;;;;;5093375;27;20111;-80
2023/03/09 12:25:21;;;;;;;4.25;3.08;;;6.70;99.90;;;;;;5090761;27;20412;-81
2023/03/09 12:27:57;;;;;;;7.53;3.45;;;7.20;99.90;;;;;;5092970;27;20043;-80
2023/03/09 12:30:23;;;;;;;4.90;3.42;;;7.30;99.90;;;;;;5108995;27;20081;-78
2023/03/09 12:32:49;;;;;;;4.68;3.22;;;7.60;99.90;;;;;;5092239;27;20043;-80
2023/03/09 12:35:21;;;;;;;8.23;5.40;;;6.80;99.90;;;;;;5075248;27;20054;-79
2023/03/09 12:37:46;;;;;;;4.45;3.35;;;6.40;99.90;;;;;;5108509;27;20054;-79
2023/03/09 12:40:15;;;;;;;4.68;3.22;;;7.20;99.90;;;;;;5109961;27;20450;-84
2023/03/09 12:42:43;;;;;;;8.52;3.53;;;6.30;99.90;;;;;;5091160;27;20046;-82
2023/03/09 12:45:12;;;;;;;4.65;3.90;;;6.30;99.90;;;;;;5092503;27;20403;-80
2023/03/09 12:47:42;;;;;;;6.20;3.60;;;6.30;99.90;;;;;;5091534;27;20043;-80
2023/03/09 12:50:38;;;;;;;5.85;4.00;;;7.00;99.90;;;;;;5091591;27;20035;-80
2023/03/09 12:53:13;;;;;;;7.50;4.07;;;6.30;99.90;;;;;;5109546;27;20054;-80